PWSweather.com
Personal Weather Stations
Station Observations
MARICOPA
Cobblestone Farms, Maricopa, AZ 85139

Cobblestone FarmsMaricopa, AZ 85139

Lat: 33.076, Lon: -112.0445

Elevation: 1148

Station Type: LaCrosse 2310/15

http://weather.azkiwis.net

Latest ConditionsUpdated 7:00:00 AM MST Wednesday, Aug 31, 2016
Currently Today's Max Today's Min Today's Average
Temperature 82.2°F27.9°C 83.3°F28.5°C 78.6°F25.9°C 80.5°F26.9°C
Dew Point 54.8°F12.7°C 54.8°F12.7°C 48.7°F9.3°C 51.0°F10.6°C
Winds 1.2 mph ESE1.9 kmh ESE 3.5 mph ESE5.6 kmh ESE - 0.4 mph 0.6 kmh
Wind Gusts 11.5 mph18.5 kmh 11.5 mph18.5 kmh - -
Humidity 39% 39% 32% 36%
Pressure 29.89 in1012.2 mb 29.89 in1012.2 mb 29.82 in1009.8 mb -
Hour Temp Dew Point Humidity Winds Wind Gusts Pressure Precip Precip Rate Daily Precip Total
07:00 AM 82.2°F27.9°C 54.8°F12.7°C 39% 1.2 mph ESE1.9 kmh ESE 11.5 mph18.5 kmh 29.89 in1012.2 mb - 0.00 in0.0 mm 0.00 in0.0 mm
06:45 AM 81.7°F27.6°C 54.3°F12.4°C 39% Calm Calm 3.5 mph5.6 kmh 29.88 in1011.9 mb - 0.00 in0.0 mm 0.00 in0.0 mm
06:30 AM 81.7°F27.6°C 53.6°F12.0°C 38% Calm Calm 3.5 mph5.6 kmh 29.88 in1011.9 mb - 0.00 in0.0 mm 0.00 in0.0 mm
06:15 AM 81.7°F27.6°C 53.6°F12.0°C 38% 3.5 mph ESE5.6 kmh ESE 6.9 mph11.1 kmh 29.87 in1011.5 mb - 0.00 in0.0 mm 0.00 in0.0 mm
06:00 AM 81.8°F27.7°C 52.9°F11.6°C 37% Calm Calm 1.2 mph1.9 kmh 29.87 in1011.5 mb - 0.00 in0.0 mm 0.00 in0.0 mm
05:45 AM 81.9°F27.7°C 53.1°F11.7°C 37% 1.2 mph ESE1.9 kmh ESE 6.9 mph11.1 kmh 29.86 in1011.2 mb - 0.00 in0.0 mm 0.00 in0.0 mm
05:30 AM 81.2°F27.3°C 52.4°F11.3°C 37% 2.3 mph ESE3.7 kmh ESE 6.9 mph11.1 kmh 29.86 in1011.2 mb - 0.00 in0.0 mm 0.00 in0.0 mm
05:15 AM 79.7°F26.5°C 51.8°F11.0°C 38% 1.2 mph SE1.9 kmh SE 3.5 mph5.6 kmh 29.85 in1010.8 mb - 0.00 in0.0 mm 0.00 in0.0 mm
05:00 AM 79.0°F26.1°C 50.5°F10.3°C 37% Calm Calm -- 29.85 in1010.8 mb - 0.00 in0.0 mm 0.00 in0.0 mm
04:45 AM 80.0°F26.7°C 51.4°F10.8°C 37% Calm Calm -- 29.84 in1010.5 mb - 0.00 in0.0 mm 0.00 in0.0 mm
04:30 AM 80.1°F26.7°C 52.2°F11.2°C 38% Calm Calm -- 29.84 in1010.5 mb - 0.00 in0.0 mm 0.00 in0.0 mm
04:15 AM 79.7°F26.5°C 51.8°F11.0°C 38% Calm Calm -- 29.83 in1010.2 mb - 0.00 in0.0 mm 0.00 in0.0 mm
04:00 AM 79.3°F26.3°C 51.5°F10.8°C 38% 1.2 mph ESE1.9 kmh ESE 4.6 mph7.4 kmh 29.83 in1010.2 mb - 0.00 in0.0 mm 0.00 in0.0 mm
03:45 AM 79.3°F26.3°C 50.8°F10.4°C 37% Calm Calm -- 29.83 in1010.2 mb - 0.00 in0.0 mm 0.00 in0.0 mm
03:30 AM 79.0°F26.1°C 50.5°F10.3°C 37% Calm Calm 1.2 mph1.9 kmh 29.83 in1010.2 mb - 0.00 in0.0 mm 0.00 in0.0 mm
03:15 AM 78.6°F25.9°C 50.2°F10.1°C 37% 2.3 mph ENE3.7 kmh ENE 2.3 mph3.7 kmh 29.83 in1010.2 mb - 0.00 in0.0 mm 0.00 in0.0 mm
03:00 AM 78.6°F25.9°C 49.4°F9.7°C 36% Calm Calm -- 29.83 in1010.2 mb - 0.00 in0.0 mm 0.00 in0.0 mm
02:45 AM 78.6°F25.9°C 49.4°F9.7°C 36% Calm Calm -- 29.83 in1010.2 mb - 0.00 in0.0 mm 0.00 in0.0 mm
02:30 AM 78.8°F26.0°C 49.6°F9.8°C 36% Calm Calm -- 29.83 in1010.2 mb - 0.00 in0.0 mm 0.00 in0.0 mm
02:15 AM 79.2°F26.2°C 49.1°F9.5°C 35% Calm Calm -- 29.83 in1010.2 mb - 0.00 in0.0 mm 0.00 in0.0 mm
02:00 AM 79.5°F26.4°C 49.5°F9.7°C 35% Calm Calm -- 29.82 in1009.8 mb - 0.00 in0.0 mm 0.00 in0.0 mm
01:45 AM 80.4°F26.9°C 50.2°F10.1°C 35% Calm Calm -- 29.82 in1009.8 mb - 0.00 in0.0 mm 0.00 in0.0 mm
01:30 AM 80.8°F27.1°C 49.8°F9.9°C 34% Calm Calm -- 29.82 in1009.8 mb - 0.00 in0.0 mm 0.00 in0.0 mm
01:15 AM 81.1°F27.3°C 49.3°F9.6°C 33% Calm Calm -- 29.83 in1010.2 mb - 0.00 in0.0 mm 0.00 in0.0 mm
01:00 AM 81.1°F27.3°C 49.3°F9.6°C 33% Calm Calm -- 29.83 in1010.2 mb - 0.00 in0.0 mm 0.00 in0.0 mm
12:45 AM 81.4°F27.4°C 48.7°F9.3°C 32% Calm Calm -- 29.83 in1010.2 mb - 0.00 in0.0 mm 0.00 in0.0 mm
12:30 AM 82.0°F27.8°C 49.3°F9.6°C 32% Calm Calm -- 29.82 in1009.8 mb - 0.00 in0.0 mm 0.00 in0.0 mm
12:15 AM 82.5°F28.1°C 50.5°F10.3°C 33% Calm Calm -- 29.82 in1009.8 mb - 0.00 in0.0 mm 0.00 in0.0 mm
12:00 AM 83.3°F28.5°C 50.4°F10.2°C 32% Calm Calm -- 29.82 in1009.8 mb - 0.00 in0.0 mm 0.00 in0.0 mm